createdAt,value
2018-08-18T00:00:33.434Z,62.52
2018-08-18T00:01:33.493Z,62.51
2018-08-18T00:02:33.439Z,62.67
2018-08-18T00:03:33.328Z,62.45
2018-08-18T00:04:33.547Z,62.47
2018-08-18T00:05:33.574Z,62.54
2018-08-18T00:06:33.515Z,62.49
2018-08-18T00:07:33.399Z,62.55
2018-08-18T00:08:33.347Z,62.48
2018-08-18T00:09:33.360Z,62.47
2018-08-18T00:10:33.500Z,62.48
2018-08-18T00:11:33.503Z,62.52
2018-08-18T00:12:33.239Z,62.59
2018-08-18T00:13:33.531Z,62.48
2018-08-18T00:14:33.700Z,62.56
2018-08-18T00:15:33.438Z,62.46
2018-08-18T00:16:33.305Z,62.58
2018-08-18T00:17:33.288Z,62.48
2018-08-18T00:18:33.255Z,62.52
2018-08-18T00:19:33.547Z,62.49
2018-08-18T00:20:33.647Z,62.6
2018-08-18T00:21:33.534Z,62.55
2018-08-18T00:22:33.656Z,62.6
2018-08-18T00:23:33.445Z,62.62
2018-08-18T00:24:33.494Z,62.49
2018-08-18T00:25:33.434Z,62.61
2018-08-18T00:26:33.608Z,62.48
2018-08-18T00:27:33.309Z,62.5
2018-08-18T00:28:33.655Z,62.58
2018-08-18T00:29:33.434Z,62.52
2018-08-18T00:30:33.375Z,62.53
2018-08-18T00:31:33.464Z,62.55
2018-08-18T00:32:33.610Z,62.59
2018-08-18T00:33:33.284Z,62.46
2018-08-18T00:34:33.673Z,62.58
2018-08-18T00:35:33.328Z,62.55
2018-08-18T00:36:33.611Z,62.58
2018-08-18T00:37:33.631Z,62.57
2018-08-18T00:38:33.738Z,62.61
2018-08-18T00:39:33.280Z,62.56
2018-08-18T00:40:33.211Z,62.49
2018-08-18T00:41:33.404Z,62.54
2018-08-18T00:42:33.301Z,62.47
2018-08-18T00:43:33.417Z,62.56
2018-08-18T00:44:33.431Z,62.54
2018-08-18T00:45:33.355Z,62.56
2018-08-18T00:46:33.678Z,62.5
2018-08-18T00:47:33.371Z,62.58
2018-08-18T00:48:33.386Z,62.54
2018-08-18T00:49:33.425Z,62.48
2018-08-18T00:50:33.303Z,62.45
2018-08-18T00:51:33.458Z,62.58
2018-08-18T00:52:33.538Z,62.54
2018-08-18T00:53:33.527Z,62.57
2018-08-18T00:54:33.458Z,62.54
2018-08-18T00:55:35.403Z,62.51
2018-08-18T00:56:33.471Z,62.56
2018-08-18T00:57:33.315Z,62.57
2018-08-18T00:58:33.416Z,62.6
2018-08-18T00:59:33.286Z,62.51
2018-08-18T01:00:33.585Z,62.54
2018-08-18T01:01:33.628Z,62.61
2018-08-18T01:02:33.496Z,62.54
2018-08-18T01:03:33.626Z,62.56
2018-08-18T01:04:33.390Z,62.55
2018-08-18T01:05:33.366Z,62.58
2018-08-18T01:06:33.407Z,62.55
2018-08-18T01:07:33.457Z,62.48
2018-08-18T01:08:33.245Z,62.51
2018-08-18T01:09:33.412Z,62.56
2018-08-18T01:10:33.459Z,62.51
2018-08-18T01:11:34.016Z,62.56
2018-08-18T01:12:33.934Z,62.58
2018-08-18T01:13:33.483Z,62.56
2018-08-18T01:14:33.668Z,62.62
2018-08-18T01:15:33.421Z,62.56
2018-08-18T01:16:33.246Z,62.57
2018-08-18T01:17:33.275Z,62.54
2018-08-18T01:18:33.347Z,62.49
2018-08-18T01:19:33.327Z,62.5
2018-08-18T01:20:33.399Z,62.69
2018-08-18T01:21:33.609Z,62.57
2018-08-18T01:22:33.397Z,62.46
2018-08-18T01:23:33.626Z,62.56
2018-08-18T01:24:33.334Z,62.46
2018-08-18T01:25:33.669Z,62.44
2018-08-18T01:26:33.206Z,62.56
2018-08-18T01:27:33.361Z,62.56
2018-08-18T01:28:33.445Z,62.63
2018-08-18T01:29:33.471Z,62.5
2018-08-18T01:30:33.744Z,62.65
2018-08-18T01:31:33.277Z,62.49
2018-08-18T01:32:33.428Z,62.54
2018-08-18T01:33:33.399Z,62.57
2018-08-18T01:34:33.353Z,62.54
2018-08-18T01:35:33.270Z,62.44
2018-08-18T01:36:33.376Z,62.43
2018-08-18T01:37:33.382Z,62.48
2018-08-18T01:38:33.476Z,62.54
2018-08-18T01:39:33.431Z,62.49
2018-08-18T01:40:33.349Z,62.53
2018-08-18T01:41:33.635Z,62.57
2018-08-18T01:42:33.497Z,62.6
2018-08-18T01:43:33.254Z,62.54
2018-08-18T01:44:33.321Z,62.51
2018-08-18T01:45:33.404Z,62.6
2018-08-18T01:46:33.406Z,62.58
2018-08-18T01:47:33.404Z,62.59
2018-08-18T01:48:33.279Z,62.54
2018-08-18T01:49:33.407Z,62.54
2018-08-18T01:50:33.288Z,62.59
2018-08-18T01:51:33.284Z,62.52
2018-08-18T01:52:33.537Z,62.5
2018-08-18T01:53:33.269Z,62.67
2018-08-18T01:54:33.408Z,62.52
2018-08-18T01:55:33.578Z,62.5
2018-08-18T01:56:33.407Z,62.59
2018-08-18T01:57:33.435Z,62.53
2018-08-18T01:58:33.340Z,62.53
2018-08-18T01:59:33.330Z,62.52
2018-08-18T02:00:33.545Z,62.54
2018-08-18T02:01:33.309Z,62.61
2018-08-18T02:02:33.267Z,62.55
2018-08-18T02:03:33.452Z,62.55
2018-08-18T02:04:33.342Z,62.52
2018-08-18T02:05:33.370Z,62.59
2018-08-18T02:06:33.457Z,62.51
2018-08-18T02:07:33.371Z,62.58
2018-08-18T02:08:33.448Z,62.6
2018-08-18T02:09:33.406Z,62.52
2018-08-18T02:10:33.418Z,62.65
2018-08-18T02:11:33.256Z,62.52
2018-08-18T02:12:33.377Z,62.52
2018-08-18T02:13:33.233Z,62.47
2018-08-18T02:14:33.436Z,62.52
2018-08-18T02:15:33.284Z,62.59
2018-08-18T02:16:33.484Z,62.67
2018-08-18T02:17:33.268Z,62.53
2018-08-18T02:18:33.358Z,62.58
2018-08-18T02:19:33.395Z,62.58
2018-08-18T02:20:33.200Z,62.45
2018-08-18T02:21:33.285Z,62.68
2018-08-18T02:22:33.501Z,62.54
2018-08-18T02:23:33.457Z,62.45
2018-08-18T02:24:33.292Z,62.63
2018-08-18T02:25:33.660Z,62.58
2018-08-18T02:26:33.663Z,62.55
2018-08-18T02:27:33.377Z,62.53
2018-08-18T02:28:33.462Z,62.54
2018-08-18T02:29:33.228Z,62.53
2018-08-18T02:30:33.322Z,62.53
2018-08-18T02:31:33.383Z,62.7
2018-08-18T02:32:33.497Z,62.5
2018-08-18T02:33:33.428Z,62.46
2018-08-18T02:34:33.363Z,62.5
2018-08-18T02:35:33.359Z,62.56
2018-08-18T02:36:33.260Z,62.5
2018-08-18T02:37:33.610Z,62.43
2018-08-18T02:38:33.375Z,62.55
2018-08-18T02:39:33.654Z,62.56
2018-08-18T02:40:33.517Z,62.53
2018-08-18T02:41:33.352Z,62.59
2018-08-18T02:42:33.524Z,62.58
2018-08-18T02:43:33.343Z,62.63
2018-08-18T02:44:33.606Z,62.59
2018-08-18T02:45:33.481Z,62.48
2018-08-18T02:46:33.311Z,62.56
2018-08-18T02:47:33.232Z,62.46
2018-08-18T02:48:33.259Z,62.52
2018-08-18T02:49:33.380Z,62.55
2018-08-18T02:50:33.242Z,62.6
2018-08-18T02:51:33.335Z,62.53
2018-08-18T02:52:33.444Z,62.46
2018-08-18T02:53:33.349Z,62.53
2018-08-18T02:54:33.343Z,62.53
2018-08-18T02:55:33.363Z,62.57
2018-08-18T02:56:33.254Z,62.57
2018-08-18T02:57:33.305Z,62.52
2018-08-18T02:58:33.358Z,62.53
2018-08-18T02:59:33.299Z,62.42
2018-08-18T03:00:33.404Z,62.45
2018-08-18T03:01:33.324Z,62.54
2018-08-18T03:02:33.573Z,62.53
2018-08-18T03:03:33.712Z,62.49
2018-08-18T03:04:33.448Z,62.47
2018-08-18T03:05:33.406Z,62.66
2018-08-18T03:06:33.344Z,62.5
2018-08-18T03:07:33.269Z,62.53
2018-08-18T03:08:33.469Z,62.43
2018-08-18T03:09:33.315Z,62.5
2018-08-18T03:10:33.353Z,62.41
2018-08-18T03:11:33.217Z,62.55
2018-08-18T03:12:33.361Z,62.47
2018-08-18T03:13:33.327Z,62.49
2018-08-18T03:14:33.419Z,62.5
2018-08-18T03:15:33.338Z,62.5
2018-08-18T03:16:33.201Z,62.56
2018-08-18T03:17:33.462Z,62.55
2018-08-18T03:18:33.457Z,62.53
2018-08-18T03:19:33.491Z,62.59
2018-08-18T03:20:33.333Z,62.33
2018-08-18T03:21:33.409Z,62.53
2018-08-18T03:22:33.385Z,62.51
2018-08-18T03:23:33.317Z,62.48
2018-08-18T03:24:33.406Z,62.49
2018-08-18T03:25:33.329Z,62.5
2018-08-18T03:26:33.427Z,62.46
2018-08-18T03:27:33.256Z,62.49
2018-08-18T03:28:33.415Z,62.53
2018-08-18T03:29:33.347Z,62.48
2018-08-18T03:30:33.221Z,62.49
2018-08-18T03:31:33.280Z,62.62
2018-08-18T03:32:33.730Z,62.55
2018-08-18T03:33:33.420Z,62.48
2018-08-18T03:34:33.384Z,62.5
2018-08-18T03:35:33.695Z,62.41
2018-08-18T03:36:33.221Z,62.47
2018-08-18T03:37:33.680Z,62.58
2018-08-18T03:38:33.376Z,62.5
2018-08-18T03:39:33.441Z,62.53
2018-08-18T03:40:33.532Z,62.48
2018-08-18T03:41:33.493Z,62.51
2018-08-18T03:42:33.822Z,62.53
2018-08-18T03:43:33.386Z,62.44
2018-08-18T03:44:33.371Z,62.59
2018-08-18T03:45:33.232Z,62.57
2018-08-18T03:46:33.496Z,62.46
2018-08-18T03:47:33.715Z,62.61
2018-08-18T03:48:33.656Z,62.49
2018-08-18T03:49:33.269Z,62.43
2018-08-18T03:50:33.371Z,62.63
2018-08-18T03:51:33.417Z,62.54
2018-08-18T03:52:33.653Z,62.64
2018-08-18T03:53:33.785Z,62.5
2018-08-18T03:54:33.275Z,62.17
2018-08-18T03:55:33.404Z,62.51
2018-08-18T03:56:33.430Z,62.49
2018-08-18T03:57:33.314Z,62.7
2018-08-18T03:58:33.302Z,62.51
2018-08-18T03:59:33.522Z,62.54
2018-08-18T04:00:33.271Z,62.39
2018-08-18T04:01:33.560Z,62.51
2018-08-18T04:02:33.392Z,62.52
2018-08-18T04:03:33.208Z,62.47
2018-08-18T04:04:33.769Z,62.58
2018-08-18T04:05:33.399Z,62.55
2018-08-18T04:06:33.324Z,62.55
2018-08-18T04:07:33.719Z,62.44
2018-08-18T04:08:33.375Z,62.5
2018-08-18T04:09:33.437Z,62.45
2018-08-18T04:10:33.328Z,62.51
2018-08-18T04:11:33.394Z,62.5
2018-08-18T04:12:33.412Z,62.52
2018-08-18T04:13:33.688Z,62.48
2018-08-18T04:14:33.355Z,62.54
2018-08-18T04:15:33.427Z,62.43
2018-08-18T04:16:33.717Z,62.48
2018-08-18T04:17:33.330Z,62.49
2018-08-18T04:18:33.264Z,62.54
2018-08-18T04:19:33.428Z,62.46
2018-08-18T04:20:33.215Z,62.52
2018-08-18T04:21:33.163Z,62.5
2018-08-18T04:22:33.462Z,62.5
2018-08-18T04:23:33.429Z,62.49
2018-08-18T04:24:33.805Z,62.5
2018-08-18T04:25:33.917Z,62.54
2018-08-18T04:26:33.558Z,62.46
2018-08-18T04:27:33.416Z,62.58
2018-08-18T04:28:33.367Z,62.5
2018-08-18T04:29:33.360Z,62.58
2018-08-18T04:30:33.151Z,62.47
2018-08-18T04:31:33.349Z,62.48
2018-08-18T04:32:33.434Z,62.49
2018-08-18T04:33:33.347Z,62.56
2018-08-18T04:34:33.527Z,62.49
2018-08-18T04:35:33.262Z,62.54
2018-08-18T04:36:33.458Z,62.46
2018-08-18T04:37:33.444Z,62.68
2018-08-18T04:38:33.302Z,62.46
2018-08-18T04:39:33.303Z,62.15
2018-08-18T04:40:33.351Z,61.48
2018-08-18T04:41:33.239Z,61.27
2018-08-18T04:42:33.188Z,61.21
2018-08-18T04:43:33.346Z,61.24
2018-08-18T04:44:33.353Z,61.28
2018-08-18T04:45:33.422Z,61.35
2018-08-18T04:46:33.521Z,61.25
2018-08-18T04:47:33.504Z,61.23
2018-08-18T04:48:33.347Z,61.56
2018-08-18T04:49:33.468Z,61.27
2018-08-18T04:50:33.657Z,61.34
2018-08-18T04:51:33.374Z,61.49
2018-08-18T04:52:33.395Z,61.48
2018-08-18T04:53:33.329Z,62.09
2018-08-18T04:54:33.392Z,62.03
2018-08-18T04:55:33.383Z,61.98
2018-08-18T04:56:33.394Z,62.28
2018-08-18T04:57:33.283Z,62.27
2018-08-18T04:58:33.437Z,62.32
2018-08-18T04:59:33.553Z,62.61
2018-08-18T05:00:33.453Z,62.74
2018-08-18T05:01:33.237Z,63.03
2018-08-18T05:02:33.361Z,62.87
2018-08-18T05:03:33.513Z,63.13
2018-08-18T05:04:33.331Z,63.09
2018-08-18T05:05:33.303Z,63.36
2018-08-18T05:06:33.169Z,63.69
2018-08-18T05:07:33.339Z,63.17
2018-08-18T05:08:33.415Z,63.56
2018-08-18T05:09:33.315Z,63.7
2018-08-18T05:10:33.385Z,63.4
2018-08-18T05:11:33.387Z,63.77
2018-08-18T05:12:33.243Z,63.65
2018-08-18T05:13:33.460Z,63.82
2018-08-18T05:14:33.259Z,63.42
2018-08-18T05:15:33.198Z,63.69
2018-08-18T05:16:33.331Z,63.81
2018-08-18T05:17:33.447Z,63.86
2018-08-18T05:18:33.588Z,63.65
2018-08-18T05:19:33.609Z,63.9
2018-08-18T05:20:33.295Z,63.72
2018-08-18T05:21:33.631Z,63.37
2018-08-18T05:22:33.268Z,63.58
2018-08-18T05:23:33.301Z,63.51
2018-08-18T05:24:33.285Z,64.03
2018-08-18T05:25:33.518Z,63.93
2018-08-18T05:26:33.514Z,63.74
2018-08-18T05:27:33.286Z,63.79
2018-08-18T05:28:33.243Z,64
2018-08-18T05:29:33.258Z,63.9
2018-08-18T05:30:33.357Z,64.22
2018-08-18T05:31:33.442Z,64.02
2018-08-18T05:32:33.373Z,63.99
2018-08-18T05:33:33.328Z,63.95
2018-08-18T05:34:33.428Z,63.59
2018-08-18T05:35:33.284Z,63.42
2018-08-18T05:36:33.604Z,63.3
2018-08-18T05:37:33.430Z,63.35
2018-08-18T05:38:33.253Z,63.17
2018-08-18T05:39:33.539Z,63.23
2018-08-18T05:40:33.450Z,62.96
2018-08-18T05:41:33.457Z,62.9
2018-08-18T05:42:33.332Z,62.72
2018-08-18T05:43:33.513Z,62.87
2018-08-18T05:44:33.277Z,62.61
2018-08-18T05:45:33.375Z,62.61
2018-08-18T05:46:33.240Z,62.8
2018-08-18T05:47:33.325Z,62.49
2018-08-18T05:48:33.365Z,62.44
2018-08-18T05:49:33.233Z,62.56
2018-08-18T05:50:33.409Z,62.64
2018-08-18T05:51:33.193Z,62.44
2018-08-18T05:52:33.182Z,62.6
2018-08-18T05:53:33.345Z,62.54
2018-08-18T05:54:33.171Z,62.29
2018-08-18T05:55:33.427Z,62.42
2018-08-18T05:56:33.232Z,62.33
2018-08-18T05:57:33.212Z,62.08
2018-08-18T05:58:33.403Z,62.13
2018-08-18T05:59:33.557Z,62.11
2018-08-18T06:00:33.326Z,62.23
2018-08-18T06:01:33.163Z,62.06
2018-08-18T06:02:33.186Z,62.35
2018-08-18T06:03:33.217Z,61.94
2018-08-18T06:04:33.390Z,61.81
2018-08-18T06:05:33.534Z,62.28
2018-08-18T06:06:33.348Z,62.19
2018-08-18T06:07:33.662Z,62.21
2018-08-18T06:08:33.438Z,62.2
2018-08-18T06:09:33.484Z,62.09
2018-08-18T06:10:33.394Z,62.23
2018-08-18T06:11:33.206Z,62.11
2018-08-18T06:12:33.441Z,62.06
2018-08-18T06:13:33.382Z,62.24
2018-08-18T06:14:33.348Z,62.39
2018-08-18T06:15:33.315Z,62.12
2018-08-18T06:16:33.423Z,62.1
2018-08-18T06:17:33.275Z,62.19
2018-08-18T06:18:33.280Z,62.09
2018-08-18T06:19:33.475Z,62.36
2018-08-18T06:20:33.356Z,62
2018-08-18T06:21:33.351Z,62.26
2018-08-18T06:22:33.370Z,62.09
2018-08-18T06:23:33.311Z,62.23
2018-08-18T06:24:33.324Z,62.08
2018-08-18T06:25:33.254Z,62.15
2018-08-18T06:26:33.360Z,62.4
2018-08-18T06:27:33.439Z,62.12
2018-08-18T06:28:33.173Z,62.09
2018-08-18T06:29:33.221Z,62.27
2018-08-18T06:30:33.372Z,62.18
2018-08-18T06:31:33.373Z,62.25
2018-08-18T06:32:33.389Z,62.25
2018-08-18T06:33:33.485Z,62.07
2018-08-18T06:34:33.618Z,62.26
2018-08-18T06:35:33.338Z,62.07
2018-08-18T06:36:33.442Z,62.17
2018-08-18T06:37:33.343Z,62.24
2018-08-18T06:38:33.198Z,62.12
2018-08-18T06:39:33.252Z,62.09
2018-08-18T06:40:33.522Z,62.51
2018-08-18T06:41:33.513Z,62.12
2018-08-18T06:42:33.201Z,62.22
2018-08-18T06:43:33.284Z,62.29
2018-08-18T06:44:33.374Z,62.1
2018-08-18T06:45:33.484Z,62.27
2018-08-18T06:46:33.434Z,62.22
2018-08-18T06:47:33.193Z,62.08
2018-08-18T06:48:33.450Z,62.22
2018-08-18T06:49:33.383Z,62.21
2018-08-18T06:50:33.357Z,62.17
2018-08-18T06:51:33.298Z,62.27
2018-08-18T06:52:33.215Z,62.18
2018-08-18T06:53:33.392Z,62.26
2018-08-18T06:54:33.256Z,62.17
2018-08-18T06:55:33.225Z,62.32
2018-08-18T06:56:33.215Z,62.24
2018-08-18T06:57:33.272Z,62.23
2018-08-18T06:58:33.416Z,62.17
2018-08-18T06:59:33.150Z,62.19
2018-08-18T07:00:33.339Z,62.24
2018-08-18T07:01:33.319Z,62.22
2018-08-18T07:02:33.486Z,62.11
2018-08-18T07:03:33.248Z,62.19
2018-08-18T07:04:33.391Z,62.3
2018-08-18T07:05:33.308Z,62.18
2018-08-18T07:06:33.381Z,62.17
2018-08-18T07:07:33.303Z,62.23
2018-08-18T07:08:33.380Z,62.24
2018-08-18T07:09:33.322Z,62.24
2018-08-18T07:10:33.248Z,62.2
2018-08-18T07:11:33.430Z,62.17
2018-08-18T07:12:33.343Z,62.33
2018-08-18T07:13:33.285Z,62.14
2018-08-18T07:14:33.249Z,62.24
2018-08-18T07:15:33.279Z,62.3
2018-08-18T07:16:33.291Z,62.08
2018-08-18T07:17:33.183Z,62.18
2018-08-18T07:18:33.349Z,62.13
2018-08-18T07:19:33.199Z,62.29
2018-08-18T07:20:33.359Z,62.27
2018-08-18T07:21:33.385Z,62.08
2018-08-18T07:22:33.226Z,62.22
2018-08-18T07:23:33.237Z,62.21
2018-08-18T07:24:33.230Z,62.14
2018-08-18T07:25:33.358Z,62.13
2018-08-18T07:26:33.307Z,62.21
2018-08-18T07:27:33.390Z,62.17
2018-08-18T07:28:33.547Z,62.22
2018-08-18T07:29:33.302Z,62.31
2018-08-18T07:30:33.459Z,62.28
2018-08-18T07:31:33.274Z,62.04
2018-08-18T07:32:33.116Z,62.17
2018-08-18T07:33:33.513Z,62.2
2018-08-18T07:34:33.371Z,62
2018-08-18T07:35:33.208Z,62.26
2018-08-18T07:36:33.465Z,62.24
2018-08-18T07:37:33.576Z,62.32
2018-08-18T07:38:33.445Z,62.25
2018-08-18T07:39:33.433Z,62.12
2018-08-18T07:40:33.181Z,62.31
2018-08-18T07:41:33.192Z,62
2018-08-18T07:42:33.307Z,62.18
2018-08-18T07:43:33.170Z,62.11
2018-08-18T07:44:33.378Z,62.18
2018-08-18T07:45:33.120Z,62.23
2018-08-18T07:46:33.654Z,62.01
2018-08-18T07:47:33.334Z,62.05
2018-08-18T07:48:33.528Z,62.07
2018-08-18T07:49:33.286Z,62.02
2018-08-18T07:50:33.363Z,62.3
2018-08-18T07:51:33.228Z,62.15
2018-08-18T07:52:33.251Z,62.15
2018-08-18T07:53:33.329Z,62.14
2018-08-18T07:54:33.438Z,62.28
2018-08-18T07:55:33.351Z,62.13
2018-08-18T07:56:33.349Z,62.21
2018-08-18T07:57:33.383Z,62.11
2018-08-18T07:58:33.349Z,62.01
2018-08-18T07:59:33.436Z,62.25
2018-08-18T08:00:33.380Z,62.24
2018-08-18T08:01:33.288Z,62.15
2018-08-18T08:02:33.237Z,62.1
2018-08-18T08:03:33.351Z,62.13
2018-08-18T08:04:33.256Z,62.08
2018-08-18T08:05:33.342Z,62.08
2018-08-18T08:06:33.207Z,61.95
2018-08-18T08:07:33.307Z,62
2018-08-18T08:08:33.892Z,62.06
2018-08-18T08:09:33.460Z,61.95
2018-08-18T08:10:33.169Z,62.13
2018-08-18T08:11:33.521Z,61.98
2018-08-18T08:12:33.603Z,61.94
2018-08-18T08:13:33.428Z,62.02
2018-08-18T08:14:33.353Z,62.11
2018-08-18T08:15:33.366Z,62.12
2018-08-18T08:16:33.380Z,62.05
2018-08-18T08:17:33.392Z,62.17
2018-08-18T08:18:33.345Z,62.04
2018-08-18T08:19:33.369Z,62.17
2018-08-18T08:20:33.447Z,62.26
2018-08-18T08:21:33.197Z,62.13
2018-08-18T08:22:33.592Z,62.1
2018-08-18T08:23:33.407Z,62.32
2018-08-18T08:24:33.346Z,62.22
2018-08-18T08:25:33.335Z,62.16
2018-08-18T08:26:33.250Z,62.29
2018-08-18T08:27:33.414Z,62.22
2018-08-18T08:28:33.524Z,62.19
2018-08-18T08:29:33.264Z,62.24
2018-08-18T08:30:33.080Z,62.37
2018-08-18T08:31:33.278Z,62.19
2018-08-18T08:32:33.378Z,62.28
2018-08-18T08:33:33.206Z,62.25
2018-08-18T08:34:33.361Z,62.26
2018-08-18T08:35:33.347Z,62.32
2018-08-18T08:36:33.268Z,62.25
2018-08-18T08:37:33.446Z,62.25
2018-08-18T08:38:33.256Z,62.21
2018-08-18T08:39:33.182Z,62.24
2018-08-18T08:40:33.142Z,62.3
2018-08-18T08:41:33.254Z,62.14
2018-08-18T08:42:33.469Z,62.21
2018-08-18T08:43:33.325Z,62.32
2018-08-18T08:44:33.442Z,62.42
2018-08-18T08:45:33.269Z,62.25
2018-08-18T08:46:33.277Z,62.27
2018-08-18T08:47:33.313Z,62.25
2018-08-18T08:48:33.113Z,62.32
2018-08-18T08:49:33.262Z,62.26
2018-08-18T08:50:33.320Z,62.26
2018-08-18T08:51:33.445Z,62.27
2018-08-18T08:52:33.433Z,62.15
2018-08-18T08:53:33.294Z,62.26
2018-08-18T08:54:33.349Z,62.01
2018-08-18T08:55:33.304Z,62.18
2018-08-18T08:56:33.314Z,62.24
2018-08-18T08:57:33.249Z,62.25
2018-08-18T08:58:33.457Z,62.21
2018-08-18T08:59:33.339Z,62.17
2018-08-18T09:00:33.481Z,62.18
2018-08-18T09:01:33.399Z,62.18
2018-08-18T09:02:33.381Z,62.2
2018-08-18T09:03:33.403Z,62.24
2018-08-18T09:04:33.274Z,62.13
2018-08-18T09:05:33.368Z,62.24
2018-08-18T09:06:33.513Z,62.18
2018-08-18T09:07:33.301Z,62.18
2018-08-18T09:08:33.368Z,62.15
2018-08-18T09:09:33.343Z,62.13
2018-08-18T09:10:33.317Z,62.05
2018-08-18T09:11:33.362Z,62.16
2018-08-18T09:12:33.141Z,62.15
2018-08-18T09:13:33.453Z,62.14
2018-08-18T09:14:33.202Z,62.13
2018-08-18T09:15:33.135Z,62.09
2018-08-18T09:16:33.238Z,62.09
2018-08-18T09:17:33.251Z,62.22
2018-08-18T09:18:33.128Z,62.12
2018-08-18T09:19:33.389Z,62.17
2018-08-18T09:20:33.304Z,62.57
2018-08-18T09:21:33.376Z,62.23
2018-08-18T09:22:33.436Z,62.4
2018-08-18T09:23:33.403Z,62.32
2018-08-18T09:24:33.107Z,62.46
2018-08-18T09:25:33.275Z,62.46
2018-08-18T09:26:34.094Z,62.41
2018-08-18T09:27:33.712Z,62.37
2018-08-18T09:28:33.577Z,62.41
2018-08-18T09:29:33.235Z,62.5
2018-08-18T09:30:33.370Z,62.35
2018-08-18T09:31:33.231Z,62.38
2018-08-18T09:32:33.261Z,62.41
2018-08-18T09:33:33.197Z,62.32
2018-08-18T09:34:33.426Z,62.36
2018-08-18T09:35:33.383Z,62.35
2018-08-18T09:36:33.373Z,62.44
2018-08-18T09:37:33.277Z,62.55
2018-08-18T09:38:33.179Z,62.45
2018-08-18T09:39:33.226Z,62.45
2018-08-18T09:40:33.268Z,62.45
2018-08-18T09:41:33.313Z,62.61
2018-08-18T09:42:33.199Z,62.58
2018-08-18T09:43:33.163Z,62.53
2018-08-18T09:44:33.370Z,62.55
2018-08-18T09:45:33.133Z,62.61
2018-08-18T09:46:33.479Z,62.6
2018-08-18T09:47:33.280Z,62.56
2018-08-18T09:48:33.510Z,62.63
2018-08-18T09:49:33.323Z,62.56
2018-08-18T09:50:33.615Z,62.56
2018-08-18T09:51:33.211Z,62.76
2018-08-18T09:52:33.406Z,62.82
2018-08-18T09:53:33.298Z,62.7
2018-08-18T09:54:33.161Z,62.81
2018-08-18T09:55:33.425Z,62.83
2018-08-18T09:56:33.437Z,62.8
2018-08-18T09:57:33.400Z,62.99
2018-08-18T09:58:33.343Z,63
2018-08-18T09:59:33.295Z,62.87
2018-08-18T10:00:33.179Z,62.92
2018-08-18T10:01:33.345Z,62.82
2018-08-18T10:02:33.313Z,62.76
2018-08-18T10:03:33.252Z,62.94
2018-08-18T10:04:33.258Z,63.01
2018-08-18T10:05:33.337Z,62.96
2018-08-18T10:06:33.269Z,63
2018-08-18T10:07:33.326Z,62.83
2018-08-18T10:08:33.126Z,62.82
2018-08-18T10:09:33.201Z,62.87
2018-08-18T10:10:33.193Z,62.73
2018-08-18T10:11:33.225Z,62.96
2018-08-18T10:12:33.279Z,62.88
2018-08-18T10:13:33.367Z,62.96
2018-08-18T10:14:33.220Z,62.96
2018-08-18T10:15:33.460Z,63.07
2018-08-18T10:16:33.428Z,62.84
2018-08-18T10:17:33.409Z,62.87
2018-08-18T10:18:33.234Z,62.66
2018-08-18T10:19:33.533Z,62.95
2018-08-18T10:20:33.269Z,63
2018-08-18T10:21:33.497Z,62.87
2018-08-18T10:22:33.242Z,62.94
2018-08-18T10:23:34.030Z,62.85
2018-08-18T10:24:33.207Z,62.86
2018-08-18T10:25:33.315Z,62.73
2018-08-18T10:26:33.381Z,62.87
2018-08-18T10:27:33.280Z,62.88
2018-08-18T10:28:33.164Z,62.9
2018-08-18T10:29:33.326Z,62.83
2018-08-18T10:30:33.399Z,62.91
2018-08-18T10:31:33.318Z,62.9
2018-08-18T10:32:33.499Z,62.88
2018-08-18T10:33:33.324Z,62.82
2018-08-18T10:34:33.271Z,62.85
2018-08-18T10:35:33.601Z,62.76
2018-08-18T10:36:33.196Z,62.83
2018-08-18T10:37:33.234Z,62.83
2018-08-18T10:38:33.446Z,62.69
2018-08-18T10:39:33.342Z,62.73
2018-08-18T10:40:33.242Z,62.76
2018-08-18T10:41:33.708Z,62.69
2018-08-18T10:42:33.535Z,62.69
2018-08-18T10:43:33.377Z,62.68
2018-08-18T10:44:33.506Z,62.68
2018-08-18T10:45:33.196Z,62.64
2018-08-18T10:46:33.414Z,62.68
2018-08-18T10:47:33.812Z,62.66
2018-08-18T10:48:33.345Z,62.67
2018-08-18T10:49:33.884Z,62.74
2018-08-18T10:50:33.402Z,62.68
2018-08-18T10:51:33.431Z,62.66
2018-08-18T10:52:33.236Z,62.62
2018-08-18T10:53:33.459Z,62.6
2018-08-18T10:54:33.466Z,62.67
2018-08-18T10:55:33.405Z,62.66
2018-08-18T10:56:33.172Z,62.61
2018-08-18T10:57:33.149Z,62.55
2018-08-18T10:58:33.484Z,62.52
2018-08-18T10:59:33.157Z,62.62
2018-08-18T11:00:33.325Z,62.64
2018-08-18T11:01:33.346Z,62.59
2018-08-18T11:02:33.669Z,62.64
2018-08-18T11:03:33.142Z,62.63
2018-08-18T11:04:33.476Z,62.67
2018-08-18T11:05:33.385Z,62.58
2018-08-18T11:06:33.541Z,62.62
2018-08-18T11:07:34.205Z,62.62
2018-08-18T11:08:33.452Z,62.65
2018-08-18T11:09:33.195Z,62.6
2018-08-18T11:10:33.250Z,62.63
2018-08-18T11:11:33.462Z,62.59
2018-08-18T11:12:33.113Z,62.51
2018-08-18T11:13:33.830Z,62.52
2018-08-18T11:14:33.325Z,62.67
2018-08-18T11:15:33.247Z,62.52
2018-08-18T11:16:33.284Z,62.39
2018-08-18T11:17:33.295Z,62.42
2018-08-18T11:18:33.273Z,62.47
2018-08-18T11:19:33.323Z,62.5
2018-08-18T11:20:33.190Z,62.41
2018-08-18T11:21:33.233Z,62.43
2018-08-18T11:22:33.362Z,62.58
2018-08-18T11:23:33.320Z,62.49
2018-08-18T11:24:33.358Z,62.63
2018-08-18T11:25:33.218Z,62.49
2018-08-18T11:26:33.197Z,62.55
2018-08-18T11:27:33.526Z,62.44
2018-08-18T11:28:33.492Z,62.58
2018-08-18T11:29:33.300Z,62.57
2018-08-18T11:30:33.143Z,62.63
2018-08-18T11:31:33.210Z,62.57
2018-08-18T11:32:33.365Z,62.53
2018-08-18T11:33:33.131Z,62.58
2018-08-18T11:34:34.309Z,62.51
2018-08-18T11:35:33.336Z,62.57
2018-08-18T11:36:33.370Z,62.63
2018-08-18T11:37:33.233Z,62.54
2018-08-18T11:38:33.431Z,62.55
2018-08-18T11:39:33.153Z,62.57
2018-08-18T11:40:33.477Z,62.55
2018-08-18T11:41:33.385Z,62.58
2018-08-18T11:42:33.266Z,62.62
2018-08-18T11:43:33.360Z,62.56
2018-08-18T11:44:33.288Z,62.62
2018-08-18T11:45:33.648Z,62.41
2018-08-18T11:46:33.450Z,62.57
2018-08-18T11:47:33.597Z,62.6
2018-08-18T11:48:33.183Z,62.57
2018-08-18T11:49:33.509Z,62.52
2018-08-18T11:50:33.232Z,62.58
2018-08-18T11:51:33.199Z,62.58
2018-08-18T11:52:33.201Z,62.53
2018-08-18T11:53:33.232Z,62.6
2018-08-18T11:54:33.606Z,62.46
2018-08-18T11:55:33.250Z,62.53
2018-08-18T11:56:33.376Z,62.51
2018-08-18T11:57:33.169Z,62.49
2018-08-18T11:58:33.082Z,62.52
2018-08-18T11:59:33.285Z,62.51
2018-08-18T12:00:33.228Z,62.58
2018-08-18T12:01:33.157Z,62.52
2018-08-18T12:02:33.392Z,62.58
2018-08-18T12:03:33.489Z,62.54
2018-08-18T12:04:33.252Z,62.53
2018-08-18T12:05:33.448Z,62.44
2018-08-18T12:06:33.295Z,62.44
2018-08-18T12:07:33.299Z,62.52
2018-08-18T12:08:33.407Z,62.55
2018-08-18T12:09:33.581Z,62.58
2018-08-18T12:10:33.321Z,62.52
2018-08-18T12:11:33.374Z,62.6
2018-08-18T12:12:33.241Z,62.53
2018-08-18T12:13:33.523Z,62.51
2018-08-18T12:14:33.343Z,62.41
2018-08-18T12:15:33.097Z,62.51
2018-08-18T12:16:33.452Z,62.45
2018-08-18T12:17:33.594Z,62.47
2018-08-18T12:18:33.107Z,62.48
2018-08-18T12:19:33.102Z,62.53
2018-08-18T12:20:33.540Z,62.47
2018-08-18T12:21:33.444Z,62.45
2018-08-18T12:22:33.263Z,62.55
2018-08-18T12:23:33.311Z,62.44
2018-08-18T12:24:33.293Z,62.51
2018-08-18T12:25:33.256Z,62.51
2018-08-18T12:26:33.084Z,62.48
2018-08-18T12:27:33.385Z,62.46
2018-08-18T12:28:33.361Z,62.51
2018-08-18T12:29:33.628Z,62.46
2018-08-18T12:30:33.318Z,62.5
2018-08-18T12:31:33.255Z,62.56
2018-08-18T12:32:33.828Z,62.5
2018-08-18T12:33:33.384Z,62.47
2018-08-18T12:34:33.257Z,62.66
2018-08-18T12:35:33.471Z,62.65
2018-08-18T12:36:33.280Z,62.54
2018-08-18T12:37:33.442Z,62.45
2018-08-18T12:38:33.295Z,62.45
2018-08-18T12:39:33.351Z,62.43
2018-08-18T12:40:33.255Z,62.47
2018-08-18T12:41:33.466Z,62.4
2018-08-18T12:42:33.174Z,62.44
2018-08-18T12:43:33.721Z,62.38
2018-08-18T12:44:33.441Z,62.5
2018-08-18T12:45:33.267Z,62.55
2018-08-18T12:46:33.223Z,62.55
2018-08-18T12:47:33.730Z,62.73
2018-08-18T12:48:33.212Z,62.68
2018-08-18T12:49:33.311Z,62.78
2018-08-18T12:50:33.189Z,62.78
2018-08-18T12:51:33.354Z,62.86
2018-08-18T12:52:33.230Z,63.02
2018-08-18T12:53:33.239Z,63.02
2018-08-18T12:54:33.291Z,63.45
2018-08-18T12:55:33.167Z,63.37